Time;durP1;ratioP1;P1;durP2;ratioP2;P2;SDS_P1;SDS_P2;PMS_P1;PMS_P2;Temp;Humidity;BMP_temperature;BMP_pressure;BME280_temperature;BME280_humidity;BME280_pressure;Samples;Min_cycle;Max_cycle;Signal;HPM_P1;HPM_P2
2022/08/03 00:00:25;;;;;;;;;;;17.60;99.90;;;;;;4598262;19;19986;-33
2022/08/03 00:02:08;;;;;;;;;;;17.60;99.90;;;;;;4598805;19;19926;-33
2022/08/03 00:03:39;;;;;;;;;;;17.50;99.90;;;;;;4597297;19;19914;-32
2022/08/03 00:05:10;;;;;;;;;;;17.50;99.90;;;;;;4596408;19;19918;-31
2022/08/03 00:06:41;;;;;;;;;;;17.50;99.90;;;;;;4595829;19;20616;-32
2022/08/03 00:08:12;;;;;;;;;;;17.50;99.90;;;;;;4597085;19;19952;-32
2022/08/03 00:09:43;;;;;;;;;;;17.50;99.90;;;;;;4596374;19;19982;-31
2022/08/03 00:11:14;;;;;;;;;;;17.50;99.90;;;;;;4596839;19;19922;-31
2022/08/03 00:12:45;;;;;;;;;;;17.40;99.90;;;;;;4596606;19;19943;-32
2022/08/03 00:14:16;;;;;;;;;;;17.40;99.90;;;;;;4597309;19;19919;-32
2022/08/03 00:15:46;;;;;;;;;;;17.40;99.90;;;;;;4596447;19;19922;-33
2022/08/03 00:17:17;;;;;;;;;;;17.40;99.90;;;;;;4597607;19;19915;-32
2022/08/03 00:18:48;;;;;;;;;;;17.40;99.90;;;;;;4596722;19;19923;-33
2022/08/03 00:20:20;;;;;;;;;;;17.40;99.90;;;;;;4595715;19;20003;-33
2022/08/03 00:21:51;;;;;;;;;;;17.40;99.90;;;;;;4597568;19;20007;-31
2022/08/03 00:23:21;;;;;;;;;;;17.30;99.90;;;;;;4596556;19;19944;-33
2022/08/03 00:24:52;;;;;;;;;;;17.30;99.90;;;;;;4597642;19;20238;-33
2022/08/03 00:26:23;;;;;;;;;;;17.30;99.90;;;;;;4596505;19;19922;-32
2022/08/03 00:27:54;;;;;;;;;;;17.30;99.90;;;;;;4597327;19;19944;-31
2022/08/03 00:29:25;;;;;;;;;;;17.30;99.90;;;;;;4596292;19;19926;-32
2022/08/03 00:30:56;;;;;;;;;;;17.30;99.90;;;;;;4594515;19;19954;-32
2022/08/03 00:32:27;;;;;;;;;;;17.30;99.90;;;;;;4597374;19;19923;-32
2022/08/03 00:33:58;;;;;;;;;;;17.30;99.90;;;;;;4596578;19;20333;-33
2022/08/03 00:35:29;;;;;;;;;;;17.20;99.90;;;;;;4596373;19;19926;-33
2022/08/03 00:37:00;;;;;;;;;;;17.20;99.90;;;;;;4599258;19;19933;-33
2022/08/03 00:38:31;;;;;;;;;;;17.30;99.90;;;;;;4598946;19;19941;-31
2022/08/03 00:40:02;;;;;;;;;;;17.30;99.90;;;;;;4599331;19;19918;-33
2022/08/03 00:41:33;;;;;;;;;;;17.30;99.90;;;;;;4598231;19;19955;-32
2022/08/03 00:43:04;;;;;;;;;;;17.30;99.90;;;;;;4592744;19;19922;-32
2022/08/03 00:44:39;;;;;;;;;;;17.30;99.90;;;;;;4594936;19;19914;-33
2022/08/03 00:46:10;;;;;;;;;;;17.40;99.90;;;;;;4592180;19;19931;-32
2022/08/03 00:47:41;;;;;;;;;;;17.40;99.90;;;;;;4594771;19;20325;-32
2022/08/03 00:49:12;;;;;;;;;;;17.30;99.90;;;;;;4594730;19;19923;-32
2022/08/03 00:50:43;;;;;;;;;;;17.30;99.90;;;;;;4592031;19;19927;-33
2022/08/03 00:52:15;;;;;;;;;;;17.30;99.90;;;;;;4591863;19;19926;-33
2022/08/03 00:53:46;;;;;;;;;;;17.30;99.90;;;;;;4592308;19;19923;-33
2022/08/03 00:55:17;;;;;;;;;;;17.40;99.90;;;;;;4594469;19;19979;-31
2022/08/03 00:56:48;;;;;;;;;;;17.40;99.90;;;;;;4592844;19;19974;-33
2022/08/03 00:58:19;;;;;;;;;;;17.30;99.90;;;;;;4594829;19;20345;-31
2022/08/03 00:59:50;;;;;;;;;;;17.40;99.90;;;;;;4594553;19;19917;-32
2022/08/03 01:01:21;;;;;;;;;;;17.40;99.90;;;;;;4594141;19;19919;-31
2022/08/03 01:02:52;;;;;;;;;;;17.40;99.90;;;;;;4593577;19;19922;-32
2022/08/03 01:04:23;;;;;;;;;;;17.40;99.90;;;;;;4594149;19;19926;-33
2022/08/03 01:05:59;;;;;;;;;;;17.40;99.90;;;;;;4594704;19;19915;-32
2022/08/03 01:07:39;;;;;;;;;;;17.30;99.90;;;;;;4592182;19;19918;-33
2022/08/03 01:09:30;;;;;;;;;;;17.30;99.90;;;;;;4593934;19;19929;-33
2022/08/03 01:11:01;;;;;;;;;;;17.30;99.90;;;;;;4593249;19;19982;-32
2022/08/03 01:12:36;;;;;;;;;;;17.30;99.90;;;;;;4593514;19;19923;-33
2022/08/03 01:14:18;;;;;;;;;;;17.30;99.90;;;;;;4594914;19;19914;-33
2022/08/03 01:15:53;;;;;;;;;;;17.40;99.90;;;;;;4592789;19;19927;-31
2022/08/03 01:17:34;;;;;;;;;;;17.30;99.90;;;;;;4593148;19;19918;-31
2022/08/03 01:19:23;;;;;;;;;;;17.30;99.90;;;;;;4592953;19;19915;-33
2022/08/03 01:20:55;;;;;;;;;;;17.30;99.90;;;;;;4593095;19;19942;-31
2022/08/03 01:22:44;;;;;;;;;;;17.30;99.90;;;;;;4593097;19;19930;-31
2022/08/03 01:24:28;;;;;;;;;;;17.30;99.90;;;;;;4593508;19;19934;-32
2022/08/03 01:26:03;;;;;;;;;;;17.30;99.90;;;;;;4591643;19;19943;-31
2022/08/03 01:27:54;;;;;;;;;;;17.30;99.90;;;;;;4593397;19;19922;-32
2022/08/03 01:29:33;;;;;;;;;;;17.30;99.90;;;;;;4590731;19;19929;-33
2022/08/03 01:31:06;;;;;;;;;;;17.30;99.90;;;;;;4589737;19;19923;-32
2022/08/03 01:32:37;;;;;;;;;;;17.30;99.90;;;;;;4591936;19;19923;-33
2022/08/03 01:34:10;;;;;;;;;;;17.30;99.90;;;;;;4591628;19;19922;-31
2022/08/03 01:35:42;;;;;;;;;;;17.30;99.90;;;;;;4590246;19;19922;-33
2022/08/03 01:37:15;;;;;;;;;;;17.30;99.90;;;;;;4589980;19;19918;-33
2022/08/03 01:38:49;;;;;;;;;;;17.30;99.90;;;;;;4591671;19;19919;-32
2022/08/03 01:40:20;;;;;;;;;;;17.30;99.90;;;;;;4590126;19;19926;-31
2022/08/03 01:41:52;;;;;;;;;;;17.30;99.90;;;;;;4591789;19;20333;-31
2022/08/03 01:43:26;;;;;;;;;;;17.30;99.90;;;;;;4591753;19;19922;-31
2022/08/03 01:44:57;;;;;;;;;;;17.30;99.90;;;;;;4590075;19;19927;-32
2022/08/03 01:46:28;;;;;;;;;;;17.30;99.90;;;;;;4589680;19;19928;-32
2022/08/03 01:47:59;;;;;;;;;;;17.30;99.90;;;;;;4590587;19;19955;-33
2022/08/03 01:49:32;;;;;;;;;;;17.30;99.90;;;;;;4589514;19;19938;-32
2022/08/03 01:51:03;;;;;;;;;;;17.30;99.90;;;;;;4591015;19;19915;-32
2022/08/03 01:52:33;;;;;;;;;;;17.30;99.90;;;;;;4591010;19;20044;-32
2022/08/03 01:54:04;;;;;;;;;;;17.30;99.90;;;;;;4590925;19;19931;-31
2022/08/03 01:55:36;;;;;;;;;;;17.30;99.90;;;;;;4590898;19;19919;-33
2022/08/03 01:57:06;;;;;;;;;;;17.30;99.90;;;;;;4591373;19;19919;-33
2022/08/03 01:58:37;;;;;;;;;;;17.30;99.90;;;;;;4590532;19;19941;-33
2022/08/03 02:00:08;;;;;;;;;;;17.20;99.90;;;;;;4589416;19;19930;-33
2022/08/03 02:01:40;;;;;;;;;;;17.20;99.90;;;;;;4590993;19;19922;-33
2022/08/03 02:03:11;;;;;;;;;;;17.20;99.90;;;;;;4590634;19;19960;-32
2022/08/03 02:04:42;;;;;;;;;;;17.20;99.90;;;;;;4588674;19;19927;-33
2022/08/03 02:06:15;;;;;;;;;;;17.20;99.90;;;;;;4590728;19;19928;-32
2022/08/03 02:07:46;;;;;;;;;;;17.20;99.90;;;;;;4591216;19;19918;-32
2022/08/03 02:09:18;;;;;;;;;;;17.20;99.90;;;;;;4592769;19;19939;-32
2022/08/03 02:10:49;;;;;;;;;;;17.20;99.90;;;;;;4591123;19;19927;-32
2022/08/03 02:12:21;;;;;;;;;;;17.20;99.90;;;;;;4591136;19;19930;-31
2022/08/03 02:13:52;;;;;;;;;;;17.20;99.90;;;;;;4593068;19;20254;-31
2022/08/03 02:15:23;;;;;;;;;;;17.20;99.90;;;;;;4590561;19;19946;-30
2022/08/03 02:16:54;;;;;;;;;;;17.20;99.90;;;;;;4592367;19;19936;-31
2022/08/03 02:18:24;;;;;;;;;;;17.20;99.90;;;;;;4592487;19;19929;-32
2022/08/03 02:19:56;;;;;;;;;;;17.20;99.90;;;;;;4592074;19;19922;-32
2022/08/03 02:21:27;;;;;;;;;;;17.20;99.90;;;;;;4591248;19;20020;-32
2022/08/03 02:22:58;;;;;;;;;;;17.20;99.90;;;;;;4591903;19;19911;-32
2022/08/03 02:24:29;;;;;;;;;;;17.30;99.90;;;;;;4593014;19;19914;-32
2022/08/03 02:26:03;;;;;;;;;;;17.20;99.90;;;;;;4591455;19;19915;-32
2022/08/03 02:27:34;;;;;;;;;;;17.20;99.90;;;;;;4591279;19;19944;-32
2022/08/03 02:29:06;;;;;;;;;;;17.20;99.90;;;;;;4591192;19;19922;-31
2022/08/03 02:30:37;;;;;;;;;;;17.20;99.90;;;;;;4592228;19;19974;-32
2022/08/03 02:32:10;;;;;;;;;;;17.20;99.90;;;;;;4591659;19;19949;-32
2022/08/03 02:33:48;;;;;;;;;;;17.20;99.90;;;;;;4590265;19;19984;-32
2022/08/03 02:35:19;;;;;;;;;;;17.20;99.90;;;;;;4589880;19;19915;-31
2022/08/03 02:36:50;;;;;;;;;;;17.20;99.90;;;;;;4591485;19;20325;-33
2022/08/03 02:38:22;;;;;;;;;;;17.20;99.90;;;;;;4590749;19;19922;-32
2022/08/03 02:39:56;;;;;;;;;;;17.20;99.90;;;;;;4591938;19;19984;-30
2022/08/03 02:41:37;;;;;;;;;;;17.20;99.90;;;;;;4590474;19;19926;-33
2022/08/03 02:43:10;;;;;;;;;;;17.20;99.90;;;;;;4590782;19;19919;-33
2022/08/03 02:44:46;;;;;;;;;;;17.20;99.90;;;;;;4591406;19;19914;-33
2022/08/03 02:46:17;;;;;;;;;;;17.20;99.90;;;;;;4590188;19;19922;-32
2022/08/03 02:47:48;;;;;;;;;;;17.20;99.90;;;;;;4590665;19;20421;-32
2022/08/03 02:49:19;;;;;;;;;;;17.20;99.90;;;;;;4591100;19;19918;-33
2022/08/03 02:50:50;;;;;;;;;;;17.20;99.90;;;;;;4590351;19;19974;-32
2022/08/03 02:52:22;;;;;;;;;;;17.20;99.90;;;;;;4589565;19;19922;-33
2022/08/03 02:53:53;;;;;;;;;;;17.20;99.90;;;;;;4590246;19;19919;-32
2022/08/03 02:55:24;;;;;;;;;;;17.10;99.90;;;;;;4592194;19;19923;-32
2022/08/03 02:56:55;;;;;;;;;;;17.20;99.90;;;;;;4589890;19;19911;-33
2022/08/03 02:58:26;;;;;;;;;;;17.20;99.90;;;;;;4591341;19;20246;-33
2022/08/03 02:59:57;;;;;;;;;;;17.10;99.90;;;;;;4590376;19;19935;-32
2022/08/03 03:01:28;;;;;;;;;;;17.20;99.90;;;;;;4591132;19;19923;-32
2022/08/03 03:03:00;;;;;;;;;;;17.20;99.90;;;;;;4588506;19;19925;-31
2022/08/03 03:04:31;;;;;;;;;;;17.10;99.90;;;;;;4590861;19;19931;-33
2022/08/03 03:06:02;;;;;;;;;;;17.10;99.90;;;;;;4589349;19;19914;-33
2022/08/03 03:07:33;;;;;;;;;;;17.10;99.90;;;;;;4590549;19;19919;-32
2022/08/03 03:09:04;;;;;;;;;;;17.10;99.90;;;;;;4590450;19;19978;-33
2022/08/03 03:10:36;;;;;;;;;;;17.10;99.90;;;;;;4590527;19;19923;-32
2022/08/03 03:12:07;;;;;;;;;;;17.10;99.90;;;;;;4590506;19;19935;-33
2022/08/03 03:13:37;;;;;;;;;;;17.10;99.90;;;;;;4591517;19;19915;-31
2022/08/03 03:15:09;;;;;;;;;;;17.10;99.90;;;;;;4589162;19;19942;-32
2022/08/03 03:16:40;;;;;;;;;;;17.10;99.90;;;;;;4590563;19;20279;-33
2022/08/03 03:18:11;;;;;;;;;;;17.10;99.90;;;;;;4589769;19;19926;-32
2022/08/03 03:19:43;;;;;;;;;;;17.10;99.90;;;;;;4591641;19;19930;-33
2022/08/03 03:21:15;;;;;;;;;;;17.10;99.90;;;;;;4590139;19;19929;-32
2022/08/03 03:22:47;;;;;;;;;;;17.10;99.90;;;;;;4590140;19;19929;-31
2022/08/03 03:24:18;;;;;;;;;;;17.10;99.90;;;;;;4590690;19;19938;-32
2022/08/03 03:25:48;;;;;;;;;;;17.10;99.90;;;;;;4589602;19;19911;-33
2022/08/03 03:27:20;;;;;;;;;;;17.10;99.90;;;;;;4591624;19;20319;-30
2022/08/03 03:28:51;;;;;;;;;;;17.10;99.90;;;;;;4590586;19;19930;-32
2022/08/03 03:30:22;;;;;;;;;;;17.10;99.90;;;;;;4590171;19;19925;-33
2022/08/03 03:31:53;;;;;;;;;;;17.10;99.90;;;;;;4588516;19;19922;-31
2022/08/03 03:33:24;;;;;;;;;;;17.10;99.90;;;;;;4589625;19;20341;-33
2022/08/03 03:34:55;;;;;;;;;;;17.00;99.90;;;;;;4590554;19;19922;-32
2022/08/03 03:36:26;;;;;;;;;;;17.00;99.90;;;;;;4589516;19;19925;-31
2022/08/03 03:37:57;;;;;;;;;;;17.00;99.90;;;;;;4589028;19;20026;-31
2022/08/03 03:39:28;;;;;;;;;;;17.10;99.90;;;;;;4590805;19;19937;-33
2022/08/03 03:40:59;;;;;;;;;;;17.10;99.90;;;;;;4590115;19;19927;-32
2022/08/03 03:42:30;;;;;;;;;;;17.10;99.90;;;;;;4589461;19;19922;-32
2022/08/03 03:44:01;;;;;;;;;;;17.10;99.90;;;;;;4590862;19;19974;-32
2022/08/03 03:45:33;;;;;;;;;;;17.10;99.90;;;;;;4590124;19;19911;-32
2022/08/03 03:47:04;;;;;;;;;;;17.10;99.90;;;;;;4590153;19;19927;-32
2022/08/03 03:48:35;;;;;;;;;;;17.10;99.90;;;;;;4588657;19;19919;-32
2022/08/03 03:50:06;;;;;;;;;;;17.10;99.90;;;;;;4590435;19;19921;-31
2022/08/03 03:51:41;;;;;;;;;;;17.20;99.90;;;;;;4587347;19;21390;-32
2022/08/03 03:53:12;;;;;;;;;;;17.10;99.90;;;;;;4590409;19;19982;-30
2022/08/03 03:54:44;;;;;;;;;;;17.20;99.90;;;;;;4589956;19;19926;-33
2022/08/03 03:56:15;;;;;;;;;;;17.20;99.90;;;;;;4590973;19;19915;-31
2022/08/03 03:57:46;;;;;;;;;;;17.20;99.90;;;;;;4589433;19;19923;-33
2022/08/03 03:59:17;;;;;;;;;;;17.20;99.90;;;;;;4590073;19;19919;-33
2022/08/03 04:00:48;;;;;;;;;;;17.30;99.90;;;;;;4591568;19;19925;-32
2022/08/03 04:02:19;;;;;;;;;;;17.30;99.90;;;;;;4590479;19;19911;-32
2022/08/03 04:03:50;;;;;;;;;;;17.30;99.90;;;;;;4589463;19;19982;-32
2022/08/03 04:10:58;;;;;;;;;;;17.30;99.90;;;;;;4589616;19;19925;-33
2022/08/03 04:12:29;;;;;;;;;;;17.30;99.90;;;;;;4588430;19;19934;-31
2022/08/03 04:14:00;;;;;;;;;;;17.40;99.90;;;;;;4589694;19;19973;-32
2022/08/03 04:15:31;;;;;;;;;;;17.40;99.90;;;;;;4589844;19;19922;-32
2022/08/03 04:17:02;;;;;;;;;;;17.40;99.90;;;;;;4589086;19;19907;-32
2022/08/03 04:18:33;;;;;;;;;;;17.40;99.90;;;;;;4592101;19;19927;-32
2022/08/03 04:20:05;;;;;;;;;;;17.40;99.90;;;;;;4592317;19;20270;-33
2022/08/03 04:21:37;;;;;;;;;;;17.40;99.90;;;;;;4594050;19;19922;-33
2022/08/03 04:23:07;;;;;;;;;;;17.40;99.90;;;;;;4593595;19;20018;-33
2022/08/03 04:24:48;;;;;;;;;;;17.50;99.90;;;;;;4594889;19;20280;-32
2022/08/03 04:26:20;;;;;;;;;;;17.50;99.90;;;;;;4593350;19;19950;-31
2022/08/03 04:27:51;;;;;;;;;;;17.50;99.90;;;;;;4594452;19;19915;-33
2022/08/03 04:29:22;;;;;;;;;;;17.50;99.90;;;;;;4592682;19;19934;-32
2022/08/03 04:30:53;;;;;;;;;;;17.50;99.90;;;;;;4593775;19;20337;-33
2022/08/03 04:32:27;;;;;;;;;;;17.60;99.90;;;;;;4593506;19;19926;-33
2022/08/03 04:33:58;;;;;;;;;;;17.60;99.90;;;;;;4594204;19;20380;-32
2022/08/03 04:35:31;;;;;;;;;;;17.60;99.90;;;;;;4593305;19;19938;-32
2022/08/03 04:37:02;;;;;;;;;;;17.60;99.90;;;;;;4593607;19;19919;-33
2022/08/03 04:38:36;;;;;;;;;;;17.60;99.90;;;;;;4593252;19;19977;-31
2022/08/03 04:40:08;;;;;;;;;;;17.60;99.90;;;;;;4594408;19;19926;-31
2022/08/03 04:41:39;;;;;;;;;;;17.60;99.90;;;;;;4593119;19;19936;-31
2022/08/03 04:43:10;;;;;;;;;;;17.60;99.90;;;;;;4594492;19;19915;-31
2022/08/03 04:44:41;;;;;;;;;;;17.70;99.90;;;;;;4592418;19;20381;-33
2022/08/03 04:46:13;;;;;;;;;;;17.70;99.90;;;;;;4594699;19;19919;-32
2022/08/03 04:47:43;;;;;;;;;;;17.70;99.90;;;;;;4593873;19;20242;-31
2022/08/03 04:49:14;;;;;;;;;;;17.70;99.90;;;;;;4591791;19;19930;-32
2022/08/03 04:50:45;;;;;;;;;;;17.80;99.90;;;;;;4592548;19;19915;-31
2022/08/03 04:52:16;;;;;;;;;;;17.80;99.90;;;;;;4591402;19;19921;-33
2022/08/03 04:53:47;;;;;;;;;;;17.80;99.90;;;;;;4593578;19;19930;-33
2022/08/03 04:55:27;;;;;;;;;;;17.80;99.90;;;;;;4592236;19;19923;-32
2022/08/03 04:56:58;;;;;;;;;;;17.90;99.90;;;;;;4594214;19;19923;-32
2022/08/03 04:58:29;;;;;;;;;;;17.90;99.90;;;;;;4593231;19;19938;-33
2022/08/03 05:00:01;;;;;;;;;;;17.80;99.90;;;;;;4594597;19;19911;-34
2022/08/03 05:01:32;;;;;;;;;;;17.90;99.90;;;;;;4592645;19;19915;-32
2022/08/03 05:03:05;;;;;;;;;;;17.90;99.90;;;;;;4593375;19;20318;-33
2022/08/03 05:04:39;;;;;;;;;;;17.90;99.90;;;;;;4592440;19;20256;-33
2022/08/03 05:06:10;;;;;;;;;;;17.90;99.90;;;;;;4594615;19;19918;-33
2022/08/03 05:07:41;;;;;;;;;;;17.90;99.90;;;;;;4594189;19;19919;-32
2022/08/03 05:09:12;;;;;;;;;;;17.90;99.90;;;;;;4594069;19;19986;-33
2022/08/03 05:10:43;;;;;;;;;;;18.00;99.90;;;;;;4591977;19;19927;-32
2022/08/03 05:12:14;;;;;;;;;;;18.00;99.90;;;;;;4592747;19;20321;-33
2022/08/03 05:13:46;;;;;;;;;;;18.00;99.90;;;;;;4594118;19;19915;-33
2022/08/03 05:15:17;;;;;;;;;;;18.10;99.90;;;;;;4591632;19;19922;-33
2022/08/03 05:16:48;;;;;;;;;;;18.10;99.90;;;;;;4593908;19;19918;-31
2022/08/03 05:18:19;;;;;;;;;;;18.10;99.90;;;;;;4593338;19;19970;-34
2022/08/03 05:19:50;;;;;;;;;;;18.10;99.90;;;;;;4594222;19;20273;-33
2022/08/03 05:21:21;;;;;;;;;;;18.20;99.90;;;;;;4593314;19;19949;-32
2022/08/03 05:22:53;;;;;;;;;;;18.20;99.90;;;;;;4593527;19;19923;-33
2022/08/03 05:24:24;;;;;;;;;;;18.30;99.90;;;;;;4594410;19;19997;-33
2022/08/03 05:25:55;;;;;;;;;;;18.30;99.90;;;;;;4592540;19;20257;-32
2022/08/03 05:27:26;;;;;;;;;;;18.30;99.90;;;;;;4594016;19;19918;-31
2022/08/03 05:28:57;;;;;;;;;;;18.30;99.90;;;;;;4591884;19;19932;-33
2022/08/03 05:30:28;;;;;;;;;;;18.40;99.90;;;;;;4594307;19;19915;-32
2022/08/03 05:32:00;;;;;;;;;;;18.40;99.90;;;;;;4591359;19;19974;-33
2022/08/03 05:33:31;;;;;;;;;;;18.40;99.90;;;;;;4592293;19;19970;-30
2022/08/03 05:35:02;;;;;;;;;;;18.40;99.90;;;;;;4593723;19;19918;-33
2022/08/03 05:36:33;;;;;;;;;;;18.50;99.90;;;;;;4594021;19;19918;-32
2022/08/03 05:38:04;;;;;;;;;;;18.50;99.90;;;;;;4592639;19;19926;-31
2022/08/03 05:39:35;;;;;;;;;;;18.50;99.90;;;;;;4593602;19;19975;-32
2022/08/03 05:41:07;;;;;;;;;;;18.50;99.90;;;;;;4593543;19;19915;-32
2022/08/03 05:42:37;;;;;;;;;;;18.50;99.90;;;;;;4591848;19;19922;-33
2022/08/03 05:44:08;;;;;;;;;;;18.50;99.90;;;;;;4591917;19;20337;-31
2022/08/03 05:45:42;;;;;;;;;;;18.50;99.90;;;;;;4592047;19;19943;-32
2022/08/03 05:47:14;;;;;;;;;;;18.60;99.90;;;;;;4593319;19;20325;-33
2022/08/03 05:48:47;;;;;;;;;;;18.60;99.90;;;;;;4589893;19;19919;-33
2022/08/03 05:50:19;;;;;;;;;;;18.60;99.90;;;;;;4591198;19;19926;-32
2022/08/03 05:51:50;;;;;;;;;;;18.70;99.90;;;;;;4591292;19;19923;-33
2022/08/03 05:53:21;;;;;;;;;;;18.70;99.90;;;;;;4591705;19;19923;-32
2022/08/03 05:54:52;;;;;;;;;;;18.70;99.90;;;;;;4592701;19;20352;-33
2022/08/03 05:56:24;;;;;;;;;;;18.80;99.90;;;;;;4590597;19;19919;-32
2022/08/03 05:57:54;;;;;;;;;;;18.70;99.90;;;;;;4590047;19;20280;-33
2022/08/03 05:59:26;;;;;;;;;;;18.70;99.90;;;;;;4593592;19;19997;-33
2022/08/03 06:00:57;;;;;;;;;;;18.80;99.90;;;;;;4592743;19;19939;-33
2022/08/03 06:02:27;;;;;;;;;;;18.80;99.90;;;;;;4593964;19;19944;-32
2022/08/03 06:03:58;;;;;;;;;;;18.80;99.90;;;;;;4593294;19;19922;-32
2022/08/03 06:05:30;;;;;;;;;;;18.90;99.90;;;;;;4592517;19;20301;-33
2022/08/03 06:07:01;;;;;;;;;;;19.00;99.90;;;;;;4591594;19;19966;-32
2022/08/03 06:08:32;;;;;;;;;;;19.00;99.90;;;;;;4593136;19;20376;-33
2022/08/03 06:10:03;;;;;;;;;;;19.00;99.90;;;;;;4590515;19;19956;-33
2022/08/03 06:11:34;;;;;;;;;;;19.10;99.90;;;;;;4591241;19;19929;-32
2022/08/03 06:13:05;;;;;;;;;;;19.10;99.90;;;;;;4592335;19;19955;-32
2022/08/03 06:14:36;;;;;;;;;;;19.10;99.90;;;;;;4592952;19;19982;-32
2022/08/03 06:16:07;;;;;;;;;;;19.20;99.90;;;;;;4591582;19;19998;-32
2022/08/03 06:17:56;;;;;;;;;;;19.20;99.90;;;;;;4591840;19;19919;-33
2022/08/03 06:19:27;;;;;;;;;;;19.20;99.90;;;;;;4593031;19;20360;-30
2022/08/03 06:20:58;;;;;;;;;;;19.20;99.90;;;;;;4591791;19;19982;-31
2022/08/03 06:22:29;;;;;;;;;;;19.30;99.90;;;;;;4592935;19;19929;-33
2022/08/03 06:24:00;;;;;;;;;;;19.30;99.90;;;;;;4591450;19;19978;-33
2022/08/03 06:25:31;;;;;;;;;;;19.40;99.90;;;;;;4590840;19;19941;-32
2022/08/03 06:27:02;;;;;;;;;;;19.40;99.90;;;;;;4592305;19;19930;-33
2022/08/03 06:28:32;;;;;;;;;;;19.40;99.90;;;;;;4591342;19;19939;-33
2022/08/03 06:30:04;;;;;;;;;;;19.50;99.90;;;;;;4592747;19;20481;-32
2022/08/03 06:31:35;;;;;;;;;;;19.50;99.90;;;;;;4593014;19;19915;-30
2022/08/03 06:33:06;;;;;;;;;;;19.50;99.90;;;;;;4592589;19;19918;-31
2022/08/03 06:34:37;;;;;;;;;;;19.50;99.90;;;;;;4591979;19;20245;-33
2022/08/03 06:36:08;;;;;;;;;;;19.50;99.90;;;;;;4591852;19;19939;-33
2022/08/03 06:37:44;;;;;;;;;;;19.60;99.90;;;;;;4592597;19;19944;-33
2022/08/03 06:39:16;;;;;;;;;;;19.60;99.90;;;;;;4592897;19;19933;-33
2022/08/03 06:40:47;;;;;;;;;;;19.60;99.90;;;;;;4589497;19;20335;-33
2022/08/03 06:42:18;;;;;;;;;;;19.60;99.90;;;;;;4591885;19;20264;-32
2022/08/03 06:43:49;;;;;;;;;;;19.60;99.90;;;;;;4591976;19;19925;-31
2022/08/03 06:45:20;;;;;;;;;;;19.60;99.90;;;;;;4593324;19;20326;-33
2022/08/03 06:46:51;;;;;;;;;;;19.60;99.90;;;;;;4593614;19;19926;-32
2022/08/03 06:48:22;;;;;;;;;;;19.60;99.90;;;;;;4590785;19;19922;-31
2022/08/03 06:49:53;;;;;;;;;;;19.60;99.90;;;;;;4591417;19;19918;-33
2022/08/03 06:51:24;;;;;;;;;;;19.70;99.90;;;;;;4591170;19;19914;-33
2022/08/03 06:52:55;;;;;;;;;;;19.60;99.90;;;;;;4591624;19;20242;-33
2022/08/03 06:54:27;;;;;;;;;;;19.70;99.90;;;;;;4591727;19;19918;-33
2022/08/03 06:55:58;;;;;;;;;;;19.70;99.90;;;;;;4592236;19;20369;-32
2022/08/03 06:57:28;;;;;;;;;;;19.70;99.90;;;;;;4591309;19;19970;-33
2022/08/03 06:58:59;;;;;;;;;;;19.80;99.90;;;;;;4590635;19;19941;-32
2022/08/03 07:00:31;;;;;;;;;;;19.70;99.90;;;;;;4591432;19;19923;-32
2022/08/03 07:02:02;;;;;;;;;;;19.80;99.90;;;;;;4592208;19;19938;-33
2022/08/03 07:03:33;;;;;;;;;;;19.80;99.90;;;;;;4591332;19;19948;-33
2022/08/03 07:05:04;;;;;;;;;;;19.80;99.90;;;;;;4590659;19;19915;-31
2022/08/03 07:06:36;;;;;;;;;;;19.80;99.90;;;;;;4591326;19;19915;-32
2022/08/03 07:08:07;;;;;;;;;;;19.90;99.90;;;;;;4591674;19;20304;-32
2022/08/03 07:09:38;;;;;;;;;;;19.90;99.90;;;;;;4591500;19;19921;-33
2022/08/03 07:11:09;;;;;;;;;;;19.90;99.90;;;;;;4591331;19;19970;-33
2022/08/03 07:12:40;;;;;;;;;;;19.90;99.90;;;;;;4591683;19;19911;-31
2022/08/03 07:14:11;;;;;;;;;;;19.90;99.90;;;;;;4592559;19;20238;-31
2022/08/03 07:15:42;;;;;;;;;;;19.90;99.90;;;;;;4590588;19;19922;-33
2022/08/03 07:17:13;;;;;;;;;;;19.90;99.90;;;;;;4593236;19;19915;-32
2022/08/03 07:18:44;;;;;;;;;;;20.00;99.90;;;;;;4591392;19;19926;-32
2022/08/03 07:20:17;;;;;;;;;;;20.00;99.90;;;;;;4590490;19;20399;-31
2022/08/03 07:21:47;;;;;;;;;;;20.00;99.90;;;;;;4591015;19;19919;-33
2022/08/03 07:23:18;;;;;;;;;;;20.10;99.90;;;;;;4589146;19;19933;-31
2022/08/03 07:24:50;;;;;;;;;;;20.10;99.90;;;;;;4591167;19;19918;-32
2022/08/03 07:26:20;;;;;;;;;;;20.10;99.90;;;;;;4590947;19;19915;-32
2022/08/03 07:27:51;;;;;;;;;;;20.20;99.90;;;;;;4591061;19;19914;-31
2022/08/03 07:29:22;;;;;;;;;;;20.30;99.90;;;;;;4591660;19;19918;-32
2022/08/03 07:30:53;;;;;;;;;;;20.30;99.90;;;;;;4590631;19;19911;-32
2022/08/03 07:32:25;;;;;;;;;;;20.40;99.90;;;;;;4587635;19;20256;-32
2022/08/03 07:33:56;;;;;;;;;;;20.50;99.90;;;;;;4587120;19;20357;-32
2022/08/03 07:35:26;;;;;;;;;;;20.60;99.90;;;;;;4590136;19;19919;-32
2022/08/03 07:36:58;;;;;;;;;;;20.70;99.90;;;;;;4590144;19;20016;-32
2022/08/03 07:38:29;;;;;;;;;;;20.80;99.90;;;;;;4588109;19;20021;-32
2022/08/03 07:40:00;;;;;;;;;;;20.70;99.90;;;;;;4589528;19;19922;-32
2022/08/03 07:41:30;;;;;;;;;;;20.80;99.90;;;;;;4590748;19;19999;-32
2022/08/03 07:43:02;;;;;;;;;;;20.80;99.90;;;;;;4590376;19;19982;-32
2022/08/03 07:44:33;;;;;;;;;;;20.80;99.90;;;;;;4590445;19;19943;-32
2022/08/03 07:46:03;;;;;;;;;;;20.90;99.90;;;;;;4590636;19;19911;-32
2022/08/03 07:47:34;;;;;;;;;;;20.90;99.90;;;;;;4590908;19;19978;-32
2022/08/03 07:49:08;;;;;;;;;;;20.90;99.90;;;;;;4590726;19;19939;-32
2022/08/03 07:50:39;;;;;;;;;;;21.00;99.90;;;;;;4590099;19;19922;-32
2022/08/03 07:54:00;;;;;;;;;;;21.00;99.90;;;;;;4596192;19;19918;-32
2022/08/03 07:55:31;;;;;;;;;;;21.10;99.90;;;;;;4595289;19;19939;-32
2022/08/03 07:57:02;;;;;;;;;;;21.10;99.90;;;;;;4594206;19;20321;-34
2022/08/03 07:58:34;;;;;;;;;;;21.10;99.90;;;;;;4595283;19;19956;-32
2022/08/03 08:00:06;;;;;;;;;;;21.10;99.90;;;;;;4595523;19;19926;-32
2022/08/03 08:01:37;;;;;;;;;;;21.20;99.90;;;;;;4594011;19;20431;-32
2022/08/03 08:03:08;;;;;;;;;;;21.30;99.90;;;;;;4595029;19;19915;-32
2022/08/03 08:04:40;;;;;;;;;;;21.30;99.90;;;;;;4595455;19;19911;-32
2022/08/03 08:06:11;;;;;;;;;;;21.40;99.90;;;;;;4594905;19;19915;-32
2022/08/03 08:07:42;;;;;;;;;;;21.50;99.90;;;;;;4595296;19;19923;-33
2022/08/03 08:09:13;;;;;;;;;;;21.60;99.90;;;;;;4595499;19;19922;-32
2022/08/03 08:10:44;;;;;;;;;;;21.60;99.90;;;;;;4595679;19;20366;-32
2022/08/03 08:12:15;;;;;;;;;;;21.50;99.90;;;;;;4593107;19;19915;-33
2022/08/03 08:13:47;;;;;;;;;;;21.60;99.90;;;;;;4594977;19;19974;-33
2022/08/03 08:15:18;;;;;;;;;;;21.60;99.90;;;;;;4595108;19;19914;-34
2022/08/03 08:16:49;;;;;;;;;;;21.60;99.90;;;;;;4595533;19;20322;-33
2022/08/03 08:18:20;;;;;;;;;;;21.50;99.90;;;;;;4594737;19;19911;-34
2022/08/03 08:19:51;;;;;;;;;;;21.60;99.90;;;;;;4594971;19;19974;-31
2022/08/03 08:21:22;;;;;;;;;;;21.60;99.90;;;;;;4595363;19;20352;-32
2022/08/03 08:22:57;;;;;;;;;;;21.70;99.90;;;;;;4594527;19;19923;-32
2022/08/03 08:24:29;;;;;;;;;;;21.70;99.90;;;;;;4594675;19;19923;-33
2022/08/03 08:26:00;;;;;;;;;;;21.70;99.90;;;;;;4595106;19;19926;-31
2022/08/03 08:27:31;;;;;;;;;;;21.70;99.90;;;;;;4594973;19;20263;-32
2022/08/03 08:29:02;;;;;;;;;;;21.80;99.90;;;;;;4594550;19;19921;-32
2022/08/03 08:30:33;;;;;;;;;;;21.80;99.90;;;;;;4594895;19;19910;-33
2022/08/03 08:32:04;;;;;;;;;;;21.90;99.90;;;;;;4592220;19;19922;-32
2022/08/03 08:33:35;;;;;;;;;;;22.00;99.90;;;;;;4594682;19;19910;-32
2022/08/03 08:35:06;;;;;;;;;;;22.00;99.90;;;;;;4594546;19;19911;-32
2022/08/03 08:36:37;;;;;;;;;;;22.10;99.90;;;;;;4594791;19;19919;-32
2022/08/03 08:38:08;;;;;;;;;;;22.10;99.90;;;;;;4594633;19;20329;-32
2022/08/03 08:39:39;;;;;;;;;;;22.00;99.90;;;;;;4593413;19;19922;-33
2022/08/03 08:41:10;;;;;;;;;;;22.10;99.90;;;;;;4593858;19;20326;-32
2022/08/03 08:42:42;;;;;;;;;;;22.10;99.90;;;;;;4594725;19;19915;-32
2022/08/03 08:44:15;;;;;;;;;;;22.10;99.90;;;;;;4594614;19;19921;-33
2022/08/03 08:45:47;;;;;;;;;;;22.10;99.90;;;;;;4591829;19;20025;-32
2022/08/03 08:47:18;;;;;;;;;;;22.10;99.90;;;;;;4593520;19;19915;-33
2022/08/03 08:48:50;;;;;;;;;;;22.10;99.90;;;;;;4594749;19;19939;-32
2022/08/03 08:50:21;;;;;;;;;;;22.10;99.90;;;;;;4593828;19;19926;-32
2022/08/03 08:51:52;;;;;;;;;;;22.10;99.90;;;;;;4591610;19;19919;-32
2022/08/03 08:53:25;;;;;;;;;;;22.10;99.90;;;;;;4593199;19;19922;-32
2022/08/03 08:54:57;;;;;;;;;;;22.10;99.90;;;;;;4593846;19;19914;-32
2022/08/03 08:56:31;;;;;;;;;;;22.10;99.90;;;;;;4594255;19;19987;-32
2022/08/03 08:58:06;;;;;;;;;;;22.10;99.90;;;;;;4593856;19;20373;-32
2022/08/03 08:59:37;;;;;;;;;;;22.00;99.90;;;;;;4593135;19;19918;-32
2022/08/03 09:01:09;;;;;;;;;;;22.00;99.90;;;;;;4593634;19;19922;-32